Time;durP1;ratioP1;P1;durP2;ratioP2;P2;SDS_P1;SDS_P2;PMS_P1;PMS_P2;Temp;Humidity;BMP_temperature;BMP_pressure;BME280_temperature;BME280_humidity;BME280_pressure;Samples;Min_cycle;Max_cycle;Signal;HPM_P1;HPM_P2
2021/06/10 00:01:47;;;;;;;19.95;16.73;;;15.10;99.90;;;;;;4997994;28;20434;-86
2021/06/10 00:04:14;;;;;;;17.73;15.90;;;15.10;99.90;;;;;;4997937;28;20082;-86
2021/06/10 00:06:41;;;;;;;17.48;15.65;;;15.00;99.90;;;;;;5014850;28;20046;-85
2021/06/10 00:09:07;;;;;;;19.10;16.75;;;15.00;99.90;;;;;;4997512;28;20056;-86
2021/06/10 00:11:35;;;;;;;18.05;16.15;;;15.00;99.90;;;;;;4997427;28;20041;-86
2021/06/10 00:14:02;;;;;;;20.13;16.60;;;15.00;99.90;;;;;;4997458;28;20050;-86
2021/06/10 00:16:29;;;;;;;19.67;16.70;;;15.00;99.90;;;;;;4997592;28;20479;-86
2021/06/10 00:18:57;;;;;;;23.02;16.52;;;15.00;99.90;;;;;;4997535;28;20054;-86
2021/06/10 00:21:24;;;;;;;19.52;15.82;;;15.00;99.90;;;;;;4997418;28;20041;-86
2021/06/10 00:23:51;;;;;;;18.98;16.10;;;14.90;99.90;;;;;;5014472;28;20054;-87
2021/06/10 00:26:18;;;;;;;19.75;16.20;;;14.90;99.90;;;;;;4997136;28;20132;-86
2021/06/10 00:28:44;;;;;;;17.85;16.08;;;14.90;99.90;;;;;;4997340;28;20466;-86
2021/06/10 00:31:11;;;;;;;18.85;16.90;;;14.90;99.90;;;;;;4997269;28;20052;-86
2021/06/10 00:33:38;;;;;;;17.27;15.57;;;14.90;99.90;;;;;;4997121;28;20045;-86
2021/06/10 00:36:05;;;;;;;17.63;15.75;;;14.90;99.90;;;;;;4997382;28;20046;-86
2021/06/10 00:38:32;;;;;;;18.85;16.85;;;14.90;99.90;;;;;;4996905;28;20060;-86
2021/06/10 00:40:58;;;;;;;15.65;14.13;;;14.90;99.90;;;;;;4997196;28;20049;-86
2021/06/10 00:43:25;;;;;;;17.40;15.70;;;14.90;99.90;;;;;;4997615;28;20065;-86
2021/06/10 00:45:53;;;;;;;16.92;15.27;;;14.90;99.90;;;;;;4996926;28;20056;-85
2021/06/10 00:48:20;;;;;;;17.63;15.30;;;14.80;99.90;;;;;;5014266;28;20057;-86
2021/06/10 00:50:47;;;;;;;15.95;14.45;;;14.80;99.90;;;;;;5021588;28;20037;-86
2021/06/10 00:53:25;;;;;;;17.17;15.38;;;14.80;99.90;;;;;;5012441;28;20088;-85
2021/06/10 00:55:56;;;;;;;18.40;15.43;;;14.80;99.90;;;;;;4997915;28;20054;-86
2021/06/10 00:58:24;;;;;;;18.73;15.23;;;14.70;99.90;;;;;;4996688;28;20050;-86
2021/06/10 01:00:51;;;;;;;17.63;15.60;;;14.70;99.90;;;;;;4996557;28;20046;-85
2021/06/10 01:03:19;;;;;;;16.95;15.15;;;14.70;99.90;;;;;;5013457;28;20124;-86
2021/06/10 01:05:52;;;;;;;17.15;15.35;;;14.70;99.90;;;;;;4996242;28;20133;-85
2021/06/10 01:08:42;;;;;;;16.83;15.10;;;14.70;99.90;;;;;;4996792;28;20049;-85
2021/06/10 01:11:13;;;;;;;16.50;14.80;;;14.60;99.90;;;;;;4996647;28;20060;-86
2021/06/10 01:14:12;;;;;;;16.85;15.15;;;14.60;99.90;;;;;;5013848;28;20050;-86
2021/06/10 01:16:43;;;;;;;19.95;16.38;;;14.60;99.90;;;;;;4996427;28;20062;-86
2021/06/10 01:19:21;;;;;;;16.85;15.15;;;14.60;99.90;;;;;;5013609;28;20053;-86
2021/06/10 01:21:49;;;;;;;18.02;15.40;;;14.60;99.90;;;;;;4996753;28;20505;-86
2021/06/10 01:24:39;;;;;;;16.67;15.00;;;14.60;99.90;;;;;;5013462;28;20058;-85
2021/06/10 01:27:17;;;;;;;17.55;15.50;;;14.50;99.90;;;;;;5013403;28;20083;-86
2021/06/10 01:29:49;;;;;;;17.25;14.27;;;14.60;99.90;;;;;;4996195;28;20441;-85
2021/06/10 01:32:18;;;;;;;16.15;14.55;;;14.50;99.90;;;;;;4996541;28;20049;-86
2021/06/10 01:34:46;;;;;;;17.77;14.98;;;14.50;99.90;;;;;;4996166;28;20566;-85
2021/06/10 01:37:14;;;;;;;16.35;14.70;;;14.60;99.90;;;;;;4996228;28;20050;-85
2021/06/10 01:39:42;;;;;;;16.98;15.18;;;14.60;99.90;;;;;;4996317;28;20054;-86
2021/06/10 01:42:11;;;;;;;15.85;13.82;;;14.50;99.90;;;;;;4996262;28;20061;-86
2021/06/10 01:44:41;;;;;;;15.85;14.25;;;14.60;99.90;;;;;;4995891;28;20046;-85
2021/06/10 01:47:09;;;;;;;15.55;14.15;;;14.60;99.90;;;;;;4995858;28;20057;-86
2021/06/10 01:49:38;;;;;;;14.80;13.32;;;14.70;99.90;;;;;;4996117;28;20054;-85
2021/06/10 01:52:06;;;;;;;14.82;13.38;;;14.60;99.90;;;;;;4996437;28;20471;-86
2021/06/10 01:54:34;;;;;;;16.38;12.57;;;14.60;99.90;;;;;;4996241;28;20061;-86
2021/06/10 01:57:03;;;;;;;14.27;12.98;;;14.60;99.90;;;;;;5013324;28;20043;-85
2021/06/10 01:59:31;;;;;;;15.32;13.82;;;14.60;99.90;;;;;;4996170;28;20050;-85
2021/06/10 02:02:03;;;;;;;16.08;12.95;;;14.60;99.90;;;;;;4995867;28;20046;-86
2021/06/10 02:04:31;;;;;;;13.98;12.73;;;14.60;99.90;;;;;;4995629;28;20053;-86
2021/06/10 02:07:00;;;;;;;15.80;14.23;;;14.60;99.90;;;;;;5013448;28;20054;-86
2021/06/10 02:09:28;;;;;;;15.70;14.10;;;14.50;99.90;;;;;;5021228;28;20088;-87
2021/06/10 02:11:55;;;;;;;16.02;14.32;;;14.40;99.90;;;;;;5010096;28;20121;-86
2021/06/10 02:14:24;;;;;;;15.90;14.30;;;14.40;99.90;;;;;;4997367;28;20056;-86
2021/06/10 02:16:52;;;;;;;16.42;14.75;;;14.40;99.90;;;;;;4999492;28;20045;-86
2021/06/10 02:19:22;;;;;;;16.38;14.73;;;14.30;99.90;;;;;;4999998;28;20061;-85
2021/06/10 02:21:49;;;;;;;15.82;14.13;;;14.40;99.90;;;;;;4999611;28;20068;-86
2021/06/10 02:24:16;;;;;;;15.93;14.32;;;14.30;99.90;;;;;;4999925;28;20096;-86
2021/06/10 02:26:43;;;;;;;18.50;14.20;;;14.30;99.90;;;;;;4999423;28;20056;-86
2021/06/10 02:29:10;;;;;;;18.92;13.77;;;14.30;99.90;;;;;;4999422;28;20052;-86
2021/06/10 02:31:37;;;;;;;17.10;14.45;;;14.30;99.90;;;;;;5016896;28;20050;-87
2021/06/10 02:34:05;;;;;;;16.98;14.65;;;14.30;99.90;;;;;;4999658;28;20528;-86
2021/06/10 02:36:35;;;;;;;15.68;14.10;;;14.30;99.90;;;;;;4999316;28;20404;-86
2021/06/10 02:39:07;;;;;;;17.15;14.10;;;14.30;99.90;;;;;;4999324;28;20081;-86
2021/06/10 02:41:39;;;;;;;15.32;13.25;;;14.30;99.90;;;;;;5016307;28;20072;-86
2021/06/10 02:44:07;;;;;;;14.77;13.38;;;14.30;99.90;;;;;;5016342;28;20060;-86
2021/06/10 02:46:34;;;;;;;16.55;13.90;;;14.30;99.90;;;;;;5016271;28;20089;-86
2021/06/10 02:49:02;;;;;;;15.10;13.63;;;14.30;99.90;;;;;;5016060;28;20082;-86
2021/06/10 02:51:32;;;;;;;14.65;13.25;;;14.30;99.90;;;;;;4999253;28;20054;-86
2021/06/10 02:54:02;;;;;;;15.52;13.93;;;14.20;99.90;;;;;;5016565;28;20049;-87
2021/06/10 02:56:30;;;;;;;15.40;13.60;;;14.20;99.90;;;;;;4998990;28;20124;-86
2021/06/10 02:59:00;;;;;;;15.48;13.88;;;14.30;99.90;;;;;;4999005;28;20053;-86
2021/06/10 03:01:30;;;;;;;14.05;12.65;;;14.30;99.90;;;;;;5016051;28;20108;-86
2021/06/10 03:04:02;;;;;;;16.02;12.80;;;14.30;99.90;;;;;;5016178;28;20056;-85
2021/06/10 03:06:30;;;;;;;13.80;12.40;;;14.30;99.90;;;;;;5015679;28;20103;-86
2021/06/10 03:08:57;;;;;;;13.73;12.18;;;14.20;99.90;;;;;;4998625;28;20104;-86
2021/06/10 03:11:24;;;;;;;16.70;12.82;;;14.20;99.90;;;;;;5016024;28;20075;-86
2021/06/10 03:13:52;;;;;;;14.07;12.65;;;14.20;99.90;;;;;;4999631;28;20041;-86
2021/06/10 03:16:19;;;;;;;13.98;12.57;;;14.20;99.90;;;;;;4998854;28;20060;-86
2021/06/10 03:18:47;;;;;;;15.27;13.77;;;14.20;99.90;;;;;;4999059;28;20052;-86
2021/06/10 03:21:14;;;;;;;15.65;13.75;;;14.20;99.90;;;;;;4998628;28;20128;-86
2021/06/10 03:23:41;;;;;;;16.38;14.15;;;14.20;99.90;;;;;;4998389;28;20049;-86
2021/06/10 03:26:09;;;;;;;15.65;14.15;;;14.20;99.90;;;;;;4998254;28;20058;-86
2021/06/10 03:28:37;;;;;;;16.23;13.32;;;14.30;99.90;;;;;;5010802;28;20105;-85
2021/06/10 03:31:05;;;;;;;14.95;13.35;;;14.30;99.90;;;;;;5005593;28;20133;-86
2021/06/10 03:33:33;;;;;;;16.48;12.80;;;14.30;99.90;;;;;;5016045;28;20395;-87
2021/06/10 03:36:01;;;;;;;15.18;13.65;;;14.30;99.90;;;;;;4998434;28;20078;-86
2021/06/10 03:38:28;;;;;;;15.55;13.35;;;14.20;99.90;;;;;;4998188;28;20046;-86
2021/06/10 03:40:56;;;;;;;13.38;12.02;;;14.30;99.90;;;;;;4998019;28;20054;-86
2021/06/10 03:43:24;;;;;;;14.13;11.95;;;14.30;99.90;;;;;;4998339;28;20050;-85
2021/06/10 03:45:51;;;;;;;13.95;12.60;;;14.30;99.90;;;;;;4998032;28;20050;-87
2021/06/10 03:48:18;;;;;;;13.85;12.43;;;14.30;99.90;;;;;;4998041;28;20050;-87
2021/06/10 03:50:46;;;;;;;13.98;12.57;;;14.30;99.90;;;;;;4997992;28;20049;-86
2021/06/10 03:53:13;;;;;;;13.48;12.07;;;14.40;99.90;;;;;;4997895;28;20114;-87
2021/06/10 03:55:40;;;;;;;12.27;11.20;;;14.40;99.90;;;;;;4997977;28;20115;-86
2021/06/10 03:58:07;;;;;;;13.38;12.07;;;14.40;99.90;;;;;;4998206;28;20399;-87
2021/06/10 04:00:34;;;;;;;12.55;11.48;;;14.50;99.90;;;;;;5015318;28;20054;-87
2021/06/10 04:03:01;;;;;;;14.80;11.25;;;14.50;99.90;;;;;;4997749;28;20550;-86
2021/06/10 04:05:31;;;;;;;11.90;10.90;;;14.50;99.90;;;;;;5014759;28;20052;-86
2021/06/10 04:07:59;;;;;;;12.00;10.80;;;14.50;99.90;;;;;;5014924;28;20052;-87
2021/06/10 04:10:26;;;;;;;12.55;11.45;;;14.60;99.90;;;;;;5014966;28;20046;-87
2021/06/10 04:12:52;;;;;;;11.85;10.85;;;14.60;99.90;;;;;;5015266;28;20129;-86
2021/06/10 04:15:19;;;;;;;12.38;11.20;;;14.60;99.90;;;;;;4997523;28;20050;-87
2021/06/10 04:17:46;;;;;;;13.52;10.43;;;14.60;99.90;;;;;;4997789;28;20049;-87
2021/06/10 04:20:14;;;;;;;13.50;9.65;;;14.70;99.90;;;;;;5014690;28;20501;-86
2021/06/10 04:22:41;;;;;;;11.52;10.48;;;14.60;99.90;;;;;;4997626;28;20502;-86
2021/06/10 04:25:09;;;;;;;10.45;9.45;;;14.60;99.90;;;;;;4997250;28;20055;-86
2021/06/10 04:27:35;;;;;;;10.93;9.85;;;14.60;99.90;;;;;;5014593;28;20050;-87
2021/06/10 04:30:05;;;;;;;11.07;10.07;;;14.60;99.90;;;;;;4997471;28;20054;-87
2021/06/10 04:32:32;;;;;;;11.00;10.10;;;14.60;99.90;;;;;;4997123;28;20145;-87
2021/06/10 04:34:59;;;;;;;11.10;10.10;;;14.70;99.90;;;;;;4997910;28;20053;-86
2021/06/10 04:37:25;;;;;;;10.95;9.95;;;14.70;99.90;;;;;;4998509;28;20050;-87
2021/06/10 04:39:52;;;;;;;11.13;9.80;;;14.70;99.90;;;;;;4997367;28;20112;-88
2021/06/10 04:42:19;;;;;;;12.18;10.35;;;14.80;99.90;;;;;;4998055;28;20176;-87
2021/06/10 04:44:46;;;;;;;14.25;9.60;;;14.90;99.90;;;;;;4998851;28;20410;-88
2021/06/10 04:47:12;;;;;;;10.95;10.00;;;15.00;99.90;;;;;;5020579;28;20058;-87
2021/06/10 04:49:39;;;;;;;9.95;8.95;;;15.10;99.90;;;;;;5019844;28;20132;-87
2021/06/10 04:52:06;;;;;;;9.50;8.70;;;15.20;99.90;;;;;;5014512;28;20058;-87
2021/06/10 04:54:34;;;;;;;9.88;8.85;;;15.10;99.90;;;;;;4996936;28;20045;-87
2021/06/10 04:57:02;;;;;;;10.00;9.13;;;15.20;99.90;;;;;;4996673;28;20100;-87
2021/06/10 04:59:29;;;;;;;10.23;9.23;;;15.10;99.90;;;;;;5013870;28;20054;-86
2021/06/10 05:01:56;;;;;;;10.15;9.30;;;15.10;99.90;;;;;;5014059;28;20052;-87
2021/06/10 05:04:24;;;;;;;19.33;12.55;;;15.00;99.90;;;;;;4996696;28;20085;-87
2021/06/10 05:06:51;;;;;;;10.85;9.80;;;14.90;99.90;;;;;;4996379;28;20473;-87
2021/06/10 05:09:17;;;;;;;15.15;10.05;;;14.80;99.90;;;;;;4996454;28;20052;-88
2021/06/10 05:11:44;;;;;;;10.90;9.82;;;14.90;99.90;;;;;;4996602;28;20085;-86
2021/06/10 05:14:11;;;;;;;11.13;9.73;;;15.10;99.90;;;;;;4996658;28;20053;-87
2021/06/10 05:16:38;;;;;;;8.50;7.80;;;15.40;99.90;;;;;;4996653;28;20050;-86
2021/06/10 05:19:05;;;;;;;8.27;7.57;;;15.90;99.90;;;;;;4996519;28;20046;-87
2021/06/10 05:21:32;;;;;;;6.68;6.22;;;16.80;99.90;;;;;;4996651;28;20112;-87
2021/06/10 05:23:59;;;;;;;13.43;6.38;;;17.70;99.90;;;;;;5014038;28;20089;-87
2021/06/10 05:26:26;;;;;;;5.32;4.88;;;19.00;99.90;;;;;;4996173;28;20056;-87
2021/06/10 05:28:52;;;;;;;10.98;6.30;;;20.00;99.90;;;;;;4996065;28;20129;-87
2021/06/10 05:31:21;;;;;;;7.35;5.93;;;20.90;99.90;;;;;;4996578;28;20053;-87
2021/06/10 05:33:51;;;;;;;13.07;6.13;;;21.90;99.90;;;;;;4996699;28;20049;-87
2021/06/10 05:36:18;;;;;;;12.52;5.80;;;22.40;99.90;;;;;;4996491;28;20085;-87
2021/06/10 05:38:45;;;;;;;4.72;4.43;;;23.20;99.90;;;;;;4996247;28;20049;-87
2021/06/10 05:41:12;;;;;;;5.47;4.53;;;23.70;99.90;;;;;;4996229;28;20052;-87
2021/06/10 05:43:38;;;;;;;5.90;4.82;;;24.00;99.90;;;;;;4996282;28;20045;-87
2021/06/10 05:46:05;;;;;;;4.82;4.40;;;24.80;99.90;;;;;;4996152;28;20049;-87
2021/06/10 05:48:32;;;;;;;4.97;4.50;;;25.00;99.90;;;;;;4995861;28;20052;-88
2021/06/10 05:50:59;;;;;;;7.50;4.50;;;25.20;99.90;;;;;;4998856;28;20410;-87
2021/06/10 05:53:26;;;;;;;5.28;4.78;;;24.70;99.90;;;;;;5000059;28;20113;-87
2021/06/10 05:55:53;;;;;;;5.05;4.68;;;25.70;99.90;;;;;;5000230;28;20049;-87
2021/06/10 05:58:20;;;;;;;5.00;4.60;;;25.80;99.90;;;;;;5000207;28;20052;-87
2021/06/10 06:00:46;;;;;;;7.80;4.80;;;25.50;99.90;;;;;;5000200;28;20410;-87
2021/06/10 06:03:13;;;;;;;10.23;5.43;;;25.30;99.90;;;;;;5000328;28;20056;-87
2021/06/10 06:05:40;;;;;;;16.73;5.55;;;25.60;99.90;;;;;;5027577;28;20045;-87
2021/06/10 06:08:07;;;;;;;9.95;4.95;;;26.30;99.90;;;;;;5026162;28;20096;-87
2021/06/10 06:10:34;;;;;;;5.55;4.85;;;27.10;99.90;;;;;;4999709;28;20199;-86
2021/06/10 06:13:02;;;;;;;4.80;3.95;;;27.50;99.90;;;;;;4999841;28;20057;-87
2021/06/10 06:15:29;;;;;;;11.40;4.40;;;27.80;99.90;;;;;;4999513;28;20049;-87
2021/06/10 06:17:57;;;;;;;9.15;4.53;;;27.60;99.90;;;;;;4999896;28;20054;-87
2021/06/10 06:20:24;;;;;;;7.88;4.70;;;28.00;99.90;;;;;;5016868;28;20495;-88
2021/06/10 06:22:51;;;;;;;6.60;4.32;;;27.70;99.90;;;;;;5016752;28;20050;-88
2021/06/10 06:25:19;;;;;;;6.78;4.68;;;28.10;99.90;;;;;;4999361;28;20498;-88
2021/06/10 06:27:47;;;;;;;4.88;4.10;;;29.00;99.90;;;;;;4999550;28;20060;-88
2021/06/10 06:30:15;;;;;;;9.00;5.00;;;29.10;98.00;;;;;;4999605;28;20041;-88
2021/06/10 06:32:46;;;;;;;6.40;4.18;;;29.10;97.70;;;;;;5016369;28;20564;-88
2021/06/10 06:35:13;;;;;;;9.73;5.13;;;29.90;97.70;;;;;;4999261;28;20137;-88
2021/06/10 06:37:39;;;;;;;8.60;4.80;;;29.70;95.10;;;;;;4999265;28;20056;-88
2021/06/10 06:40:08;;;;;;;7.93;4.25;;;29.60;94.20;;;;;;5016559;28;20407;-88
2021/06/10 06:42:36;;;;;;;11.25;4.60;;;30.00;94.30;;;;;;4999360;28;20438;-87
2021/06/10 06:45:05;;;;;;;5.50;3.92;;;30.90;93.60;;;;;;4999225;28;20505;-87
2021/06/10 06:47:32;;;;;;;8.30;3.88;;;31.20;91.10;;;;;;5016220;28;20050;-88
2021/06/10 06:49:59;;;;;;;6.47;4.45;;;32.10;88.70;;;;;;4999020;28;20045;-87
2021/06/10 06:52:26;;;;;;;5.28;4.15;;;32.00;86.90;;;;;;4999555;28;20065;-87
2021/06/10 06:54:52;;;;;;;9.50;4.72;;;33.10;83.00;;;;;;4999236;28;20140;-87
2021/06/10 06:57:19;;;;;;;24.83;5.50;;;33.30;79.20;;;;;;4999479;28;20046;-87
2021/06/10 06:59:50;;;;;;;27.73;7.22;;;32.30;81.80;;;;;;4999919;28;20494;-87
2021/06/10 07:02:17;;;;;;;15.23;5.57;;;32.50;79.10;;;;;;4998899;28;20418;-88
2021/06/10 07:04:44;;;;;;;6.70;5.10;;;32.60;79.80;;;;;;4999017;28;20077;-87
2021/06/10 07:07:11;;;;;;;8.02;4.80;;;33.10;76.60;;;;;;4998699;28;20046;-88
2021/06/10 07:09:37;;;;;;;8.10;4.43;;;32.70;75.60;;;;;;4999004;28;20052;-88
2021/06/10 07:12:04;;;;;;;9.65;4.55;;;32.40;80.80;;;;;;4998900;28;20610;-88
2021/06/10 07:14:31;;;;;;;7.40;4.55;;;32.20;78.40;;;;;;4998866;28;20050;-88
2021/06/10 07:16:59;;;;;;;4.50;3.92;;;31.70;80.10;;;;;;4998431;28;20052;-87
2021/06/10 07:19:26;;;;;;;6.45;4.30;;;33.10;78.70;;;;;;4998640;28;20042;-88
2021/06/10 07:21:53;;;;;;;5.40;4.63;;;33.70;76.60;;;;;;5016443;28;20125;-87
2021/06/10 07:24:39;;;;;;;4.82;4.43;;;32.40;77.90;;;;;;5012636;28;20038;-88
2021/06/10 07:27:09;;;;;;;4.85;4.40;;;32.30;78.10;;;;;;5024694;28;20419;-87
2021/06/10 07:29:35;;;;;;;4.93;4.53;;;32.90;78.40;;;;;;4998924;28;20096;-88
2021/06/10 07:32:03;;;;;;;4.60;4.30;;;32.50;79.80;;;;;;4998610;28;20050;-87
2021/06/10 07:34:30;;;;;;;5.43;5.03;;;32.00;76.20;;;;;;4998363;28;20050;-87
2021/06/10 07:36:57;;;;;;;5.88;4.85;;;31.90;78.50;;;;;;4998602;28;20060;-87
2021/06/10 07:39:23;;;;;;;4.70;4.40;;;31.00;81.70;;;;;;4998401;28;20042;-88
2021/06/10 07:41:50;;;;;;;4.47;4.18;;;31.30;78.80;;;;;;4998405;28;20490;-88
2021/06/10 07:44:18;;;;;;;4.65;4.38;;;31.90;79.40;;;;;;4998625;28;20050;-88
2021/06/10 07:46:45;;;;;;;4.28;3.85;;;33.00;76.70;;;;;;5015357;28;20050;-88
2021/06/10 07:49:12;;;;;;;4.57;4.22;;;34.50;73.70;;;;;;5015368;28;20120;-87
2021/06/10 07:51:39;;;;;;;5.03;4.40;;;34.70;71.20;;;;;;4998212;28;20148;-88
2021/06/10 07:54:06;;;;;;;4.22;3.92;;;34.80;68.40;;;;;;4998464;28;20056;-88
2021/06/10 07:56:32;;;;;;;5.15;4.22;;;35.40;66.10;;;;;;4997890;28;20056;-88
2021/06/10 07:58:59;;;;;;;4.53;4.22;;;35.50;65.10;;;;;;4997899;28;20060;-88
2021/06/10 08:01:26;;;;;;;4.22;4.00;;;35.00;64.40;;;;;;4998404;28;20132;-88
2021/06/10 08:03:53;;;;;;;7.95;3.92;;;35.00;64.40;;;;;;4998138;28;20068;-90
2021/06/10 08:06:20;;;;;;;4.03;3.83;;;36.30;63.30;;;;;;4997907;28;20049;-88
2021/06/10 08:08:50;;;;;;;4.32;3.92;;;36.20;61.50;;;;;;4997956;28;20053;-89
2021/06/10 08:11:17;;;;;;;4.72;4.28;;;35.80;60.90;;;;;;4997844;28;20137;-88
2021/06/10 08:13:44;;;;;;;4.30;4.00;;;35.30;61.60;;;;;;4997616;28;20077;-87
2021/06/10 08:16:11;;;;;;;4.10;3.70;;;34.00;62.90;;;;;;4997571;28;20504;-88
2021/06/10 08:18:38;;;;;;;3.55;3.35;;;34.20;66.50;;;;;;4997960;28;20418;-90
2021/06/10 08:21:05;;;;;;;3.90;3.58;;;33.80;65.20;;;;;;4997797;28;20046;-88
2021/06/10 08:23:32;;;;;;;4.18;3.80;;;33.60;65.90;;;;;;4997696;28;20136;-87
2021/06/10 08:26:03;;;;;;;4.15;3.72;;;34.20;65.40;;;;;;4997816;28;20405;-88
2021/06/10 08:28:30;;;;;;;3.70;3.40;;;34.30;66.00;;;;;;4998792;28;20050;-88
2021/06/10 08:30:57;;;;;;;4.00;3.63;;;35.60;63.40;;;;;;4997635;28;20053;-88
2021/06/10 08:33:25;;;;;;;4.00;3.80;;;36.30;64.10;;;;;;4997607;28;20058;-87
2021/06/10 08:35:52;;;;;;;3.58;3.38;;;36.30;59.60;;;;;;4997258;28;20467;-89
2021/06/10 08:38:19;;;;;;;2.78;2.60;;;38.00;59.80;;;;;;4997177;28;20128;-87
2021/06/10 08:40:46;;;;;;;7.32;3.60;;;39.30;52.80;;;;;;4997628;28;20050;-89
2021/06/10 08:43:13;;;;;;;3.00;2.90;;;39.20;54.00;;;;;;5001787;28;20053;-88
2021/06/10 08:45:46;;;;;;;3.13;2.90;;;38.50;53.40;;;;;;5015896;28;20054;-87
2021/06/10 08:48:13;;;;;;;3.05;2.75;;;38.00;52.60;;;;;;5015793;28;20503;-96
2021/06/10 08:50:42;;;;;;;2.92;2.60;;;37.70;52.50;;;;;;4997286;28;20050;-87
2021/06/10 08:53:11;;;;;;;2.50;2.30;;;37.30;53.60;;;;;;4996949;28;20473;-88
2021/06/10 08:55:38;;;;;;;5.85;2.45;;;37.00;53.60;;;;;;4997299;28;20141;-88
2021/06/10 08:58:04;;;;;;;2.60;2.40;;;37.40;52.70;;;;;;4997410;28;20046;-87
2021/06/10 09:00:32;;;;;;;3.25;2.83;;;36.80;52.40;;;;;;4997239;28;20080;-89
2021/06/10 09:03:00;;;;;;;3.13;2.92;;;36.00;55.00;;;;;;4997177;28;20046;-86
2021/06/10 09:05:29;;;;;;;2.67;2.50;;;36.40;55.10;;;;;;4997288;28;20085;-86
2021/06/10 09:07:58;;;;;;;3.53;3.22;;;37.30;51.80;;;;;;4997160;28;20050;-87
2021/06/10 09:10:27;;;;;;;2.53;2.42;;;36.50;53.60;;;;;;5014795;28;20486;-87
2021/06/10 09:12:57;;;;;;;3.35;2.67;;;36.80;53.50;;;;;;4997136;28;20133;-87
2021/06/10 09:15:27;;;;;;;5.47;5.18;;;36.10;53.60;;;;;;4997179;28;20056;-87
2021/06/10 09:17:55;;;;;;;2.65;2.30;;;36.90;53.00;;;;;;4997150;28;20494;-88
2021/06/10 09:20:22;;;;;;;1.95;1.85;;;37.80;53.00;;;;;;4995377;28;20494;-87
2021/06/10 09:23:06;;;;;;;2.47;1.90;;;38.10;49.60;;;;;;4996702;28;20421;-87
2021/06/10 09:25:34;;;;;;;2.50;2.30;;;37.70;49.10;;;;;;4996071;28;20060;-87
2021/06/10 09:28:03;;;;;;;2.20;2.10;;;37.80;49.20;;;;;;4996621;28;20049;-89
2021/06/10 09:30:33;;;;;;;4.43;2.58;;;38.00;49.10;;;;;;5014133;28;20056;-88
2021/06/10 09:33:02;;;;;;;2.58;2.42;;;36.80;49.40;;;;;;5013990;28;20050;-86
2021/06/10 09:35:35;;;;;;;2.70;2.53;;;36.70;50.60;;;;;;4996738;28;20046;-87
2021/06/10 09:38:05;;;;;;;4.35;2.97;;;38.20;50.50;;;;;;4996898;28;20405;-86
2021/06/10 09:40:33;;;;;;;2.67;2.50;;;38.50;48.30;;;;;;4996747;28;20128;-88
2021/06/10 09:43:00;;;;;;;4.10;2.58;;;37.90;48.80;;;;;;5014019;28;20107;-89
2021/06/10 09:45:31;;;;;;;4.20;2.60;;;38.30;49.40;;;;;;4996785;28;20097;-86
2021/06/10 09:48:00;;;;;;;2.90;2.60;;;37.00;51.10;;;;;;5013638;28;20096;-86
2021/06/10 09:50:41;;;;;;;2.78;2.65;;;37.40;50.90;;;;;;4996779;28;20053;-85
2021/06/10 09:53:12;;;;;;;2.17;2.08;;;37.60;49.80;;;;;;4996567;28;20053;-85
2021/06/10 09:55:45;;;;;;;2.92;2.42;;;38.70;48.80;;;;;;4997003;28;20505;-85
2021/06/10 09:58:14;;;;;;;2.65;2.45;;;37.80;48.30;;;;;;4997159;28;20057;-85
2021/06/10 10:00:48;;;;;;;2.80;2.58;;;37.30;49.50;;;;;;4996307;28;20058;-87
2021/06/10 10:03:24;;;;;;;2.70;2.60;;;37.80;50.00;;;;;;5007246;28;20057;-87
2021/06/10 10:05:56;;;;;;;2.95;2.75;;;38.80;48.80;;;;;;5003422;28;20129;-86
2021/06/10 10:08:23;;;;;;;3.63;2.80;;;39.30;49.40;;;;;;4996244;28;20108;-88
2021/06/10 10:10:50;;;;;;;3.00;2.80;;;38.80;48.80;;;;;;4995171;28;20046;-89
2021/06/10 10:13:18;;;;;;;2.90;2.78;;;38.40;50.10;;;;;;4996208;28;20145;-87
2021/06/10 10:15:46;;;;;;;3.65;3.35;;;37.80;49.70;;;;;;4996259;28;20149;-87
2021/06/10 10:18:12;;;;;;;5.43;3.03;;;35.80;51.10;;;;;;4996062;28;20129;-88
2021/06/10 10:20:40;;;;;;;4.78;3.13;;;35.70;53.60;;;;;;4996090;28;20046;-85
2021/06/10 10:23:07;;;;;;;3.15;3.05;;;35.40;52.70;;;;;;4996170;28;20328;-87
2021/06/10 10:25:34;;;;;;;3.38;3.17;;;35.30;54.40;;;;;;4995491;28;20072;-85
2021/06/10 10:28:06;;;;;;;3.20;3.00;;;36.40;53.50;;;;;;5013068;28;20050;-89
2021/06/10 10:30:33;;;;;;;3.30;3.10;;;37.30;51.70;;;;;;4995718;28;20060;-87
2021/06/10 10:33:16;;;;;;;3.20;3.00;;;36.10;51.80;;;;;;4996040;28;20074;-86
2021/06/10 10:35:47;;;;;;;;;;;36.10;51.60;;;;;;5013393;28;20052;-85
2021/06/10 10:38:19;;;;;;;3.13;2.92;;;36.80;53.60;;;;;;4999426;28;19991;-88
2021/06/10 10:41:00;;;;;;;3.42;3.22;;;37.90;50.20;;;;;;4999466;28;20088;-86
2021/06/10 10:43:29;;;;;;;3.03;2.92;;;37.20;50.90;;;;;;4999347;28;20096;-85
2021/06/10 10:46:07;;;;;;;5.15;3.00;;;36.70;52.70;;;;;;4999211;28;20054;-84
2021/06/10 10:48:37;;;;;;;4.55;3.22;;;37.50;52.60;;;;;;4999436;28;20116;-85
2021/06/10 10:51:21;;;;;;;5.72;3.63;;;36.90;51.50;;;;;;4999400;28;20491;-84
2021/06/10 10:53:54;;;;;;;3.13;2.90;;;35.50;53.00;;;;;;4999480;28;20136;-84
2021/06/10 10:56:40;;;;;;;3.58;3.25;;;36.00;52.70;;;;;;4999194;28;20050;-84
2021/06/10 10:59:15;;;;;;;3.30;3.10;;;35.50;50.90;;;;;;4988938;28;20054;-84
2021/06/10 11:02:04;;;;;;;3.53;3.30;;;34.90;53.10;;;;;;4997208;28;20050;-84
2021/06/10 11:04:55;;;;;;;3.65;3.10;;;34.10;52.70;;;;;;4999016;28;20077;-83
2021/06/10 11:07:34;;;;;;;3.30;3.20;;;33.80;54.70;;;;;;4998949;28;20042;-84
2021/06/10 11:10:03;;;;;;;3.67;3.22;;;34.40;54.50;;;;;;4999278;28;20092;-87
2021/06/10 11:12:47;;;;;;;3.42;3.08;;;34.30;54.80;;;;;;4998866;28;20056;-85
2021/06/10 11:15:25;;;;;;;3.90;3.53;;;32.60;56.00;;;;;;4999247;28;20413;-84
2021/06/10 11:17:57;;;;;;;4.32;3.60;;;31.70;57.70;;;;;;4998969;28;20160;-84
2021/06/10 11:20:36;;;;;;;4.07;3.78;;;30.80;59.50;;;;;;4999526;28;20413;-88
2021/06/10 11:23:25;;;;;;;3.60;3.40;;;29.70;61.60;;;;;;5029323;28;20072;-84
2021/06/10 11:25:54;;;;;;;4.07;3.78;;;29.30;63.90;;;;;;4998316;28;20145;-84
2021/06/10 11:28:29;;;;;;;4.15;3.80;;;29.30;66.90;;;;;;4998239;28;20445;-85
2021/06/10 11:31:16;;;;;;;3.90;3.70;;;29.10;65.80;;;;;;4998093;28;20046;-84
2021/06/10 11:33:43;;;;;;;5.32;3.85;;;28.70;66.10;;;;;;5015386;28;20462;-84
2021/06/10 11:36:11;;;;;;;5.18;3.58;;;28.30;66.10;;;;;;4998144;28;20046;-84
2021/06/10 11:38:40;;;;;;;2.90;2.78;;;28.00;68.00;;;;;;4997758;28;20084;-85
2021/06/10 11:41:26;;;;;;;5.07;3.22;;;27.70;70.10;;;;;;4997852;28;20057;-86
2021/06/10 11:43:55;;;;;;;3.10;2.80;;;27.60;71.20;;;;;;4997778;28;20056;-85
2021/06/10 11:46:39;;;;;;;2.80;2.60;;;27.40;72.90;;;;;;4998510;28;20088;-86
2021/06/10 11:49:11;;;;;;;2.75;2.55;;;27.20;73.70;;;;;;5013633;28;20068;-83
2021/06/10 11:51:39;;;;;;;4.85;3.40;;;26.70;74.60;;;;;;5014990;28;20077;-85
2021/06/10 11:54:07;;;;;;;11.50;3.30;;;26.30;77.70;;;;;;4997727;28;20056;-87
2021/06/10 11:56:34;;;;;;;9.77;3.50;;;25.80;80.30;;;;;;5014758;28;20089;-84
2021/06/10 11:59:24;;;;;;;7.10;3.40;;;25.60;86.90;;;;;;4997596;28;20104;-85
2021/06/10 12:02:01;;;;;;;6.40;2.88;;;25.80;90.70;;;;;;4997725;28;20052;-86
2021/06/10 12:04:30;;;;;;;5.63;2.70;;;25.90;87.10;;;;;;4997700;28;20469;-84
2021/06/10 12:07:08;;;;;;;5.80;2.88;;;26.10;87.20;;;;;;4997252;28;20046;-84
2021/06/10 12:09:52;;;;;;;11.10;3.13;;;25.60;87.80;;;;;;4997559;28;20089;-84
2021/06/10 12:12:41;;;;;;;3.85;3.30;;;25.30;89.60;;;;;;5014918;28;20054;-84
2021/06/10 12:15:31;;;;;;;5.55;3.60;;;25.10;90.50;;;;;;4997013;28;20121;-85
2021/06/10 12:18:06;;;;;;;13.95;3.15;;;25.00;91.80;;;;;;5013603;28;20060;-88
2021/06/10 12:20:54;;;;;;;8.18;2.95;;;25.00;91.60;;;;;;5000061;28;20400;-86
2021/06/10 12:23:38;;;;;;;15.85;4.03;;;25.30;93.60;;;;;;4998075;28;20475;-86
2021/06/10 12:26:05;;;;;;;9.65;3.58;;;26.20;92.30;;;;;;4997038;28;20053;-86
2021/06/10 12:28:37;;;;;;;9.43;3.35;;;26.60;91.10;;;;;;4997560;28;20058;-86
2021/06/10 12:31:28;;;;;;;2.85;2.75;;;26.80;89.70;;;;;;4997421;28;20056;-86
2021/06/10 12:34:00;;;;;;;7.93;3.67;;;27.20;90.50;;;;;;5014955;28;20046;-88
2021/06/10 12:36:30;;;;;;;4.57;3.33;;;27.30;92.10;;;;;;4997325;28;20056;-86
2021/06/10 12:39:00;;;;;;;3.92;3.60;;;27.30;93.60;;;;;;4998548;28;20585;-86
2021/06/10 12:41:43;;;;;;;5.30;3.70;;;27.00;90.10;;;;;;5005629;28;20114;-87
2021/06/10 12:44:14;;;;;;;4.20;3.50;;;26.80;90.30;;;;;;5005799;28;20502;-86
2021/06/10 12:46:42;;;;;;;7.65;3.22;;;26.70;92.90;;;;;;4997238;28;20132;-88
2021/06/10 12:49:09;;;;;;;8.27;3.60;;;26.10;98.10;;;;;;5014108;28;20426;-87
2021/06/10 12:51:41;;;;;;;3.75;3.30;;;25.90;99.90;;;;;;4997109;28;20050;-87